Terminal Aerodrome Forecast
Issued by NWS Omaha/Valley, NE

Home | Current Version | Previous Version | Graphics & Text | Print | Product List | Glossary On
Versions: 1 2 3 4 5 6 7 8 9 10 11 12 13 14 15 16 17 18 19 20 21 22 23 24 25 26 27 28 29 30 31 32 33 34 35 36
938
FTUS43 KOAX 170543
TAFOFK
TAF
KOFK 170543Z 1706/1806 03008KT P6SM BKN200
     FM170800 01007KT P6SM BKN030
      TEMPO 1711/1714 BKN015
     FM171700 35009KT P6SM BKN050
     FM172300 33005KT P6SM BKN100
     FM180400 VRB03KT P6SM SCT150=

USA.gov is the U.S. government's official web portal to all federal, state and local government web resources and services.